createdAt,value
2023-04-03T00:01:23.773Z,99992.29
2023-04-03T00:04:51.252Z,99993.98
2023-04-03T00:08:19.105Z,99998.34
2023-04-03T00:11:28.718Z,99998.66
2023-04-03T00:14:37.326Z,100000.08
2023-04-03T00:18:05.237Z,99998.98
2023-04-03T00:21:13.819Z,99998.63
2023-04-03T00:24:41.346Z,100000.71
2023-04-03T00:28:09.120Z,100007.52
2023-04-03T00:31:38.125Z,100009.54
2023-04-03T00:34:45.955Z,100010.48
2023-04-03T00:38:13.593Z,100005.21
2023-04-03T00:41:41.126Z,100005.16
2023-04-03T00:45:09.087Z,100006.73
2023-04-03T00:48:36.864Z,100010.44
2023-04-03T00:52:04.427Z,100006.90
2023-04-03T00:55:32.219Z,100006.90
2023-04-03T00:58:59.737Z,100011.24
2023-04-03T01:02:27.664Z,100015.25
2023-04-03T01:05:55.328Z,100018.80
2023-04-03T01:09:23.274Z,100019.80
2023-04-03T01:12:12.410Z,100025.64
2023-04-03T01:15:40.090Z,100029.01
2023-04-03T01:18:48.705Z,100030.38
2023-04-03T01:22:16.285Z,100029.15
2023-04-03T01:25:24.992Z,100029.23
2023-04-03T01:28:14.486Z,100033.04
2023-04-03T01:31:24.179Z,100035.44
2023-04-03T01:34:13.189Z,100040.92
2023-04-03T01:37:05.839Z,100043.71
2023-04-03T01:40:33.508Z,100043.33
2023-04-03T01:44:01.231Z,100046.80
2023-04-03T01:47:28.724Z,100042.77
2023-04-03T01:50:56.511Z,100041.63
2023-04-03T01:54:24.169Z,100041.44
2023-04-03T01:57:32.376Z,100042.06
2023-04-03T02:00:59.921Z,100041.35
2023-04-03T02:04:27.575Z,100040.80
2023-04-03T02:07:56.260Z,100045.41
2023-04-03T02:11:23.949Z,100044.63
2023-04-03T02:14:47.767Z,100049.42
2023-04-03T02:18:16.424Z,100050.76
2023-04-03T02:21:44.028Z,100047.23
2023-04-03T02:25:12.745Z,100052.40
2023-04-03T02:28:40.351Z,100052.48
2023-04-03T02:31:56.824Z,100046.15
2023-04-03T02:35:20.458Z,100040.55
2023-04-03T02:38:47.981Z,100041.56
2023-04-03T02:41:55.990Z,100052.92
2023-04-03T02:45:19.684Z,100053.06
2023-04-03T02:48:47.200Z,100053.30
2023-04-03T02:52:14.708Z,100055.27
2023-04-03T02:55:42.390Z,100054.48
2023-04-03T02:59:09.951Z,100054.83
2023-04-03T03:02:37.841Z,100062.10
2023-04-03T03:06:05.411Z,100065.43
2023-04-03T03:09:33.136Z,100064.73
2023-04-03T03:13:00.869Z,100067.61
2023-04-03T03:16:28.582Z,100069.33
2023-04-03T03:19:56.043Z,100070.98
2023-04-03T03:22:25.111Z,100072.80
2023-04-03T03:25:33.143Z,100075.55
2023-04-03T03:29:00.796Z,100070.73
2023-04-03T03:32:28.388Z,100075.89
2023-04-03T03:35:56.348Z,100077.37
2023-04-03T03:39:23.697Z,100075.89
2023-04-03T03:42:51.240Z,100079.72
2023-04-03T03:46:18.901Z,100078.19
2023-04-03T03:49:48.742Z,100080.28
2023-04-03T03:53:16.353Z,100079.95
2023-04-03T03:56:44.025Z,100085.03
2023-04-03T04:00:11.643Z,100080.66
2023-04-03T04:03:35.482Z,100078.70
2023-04-03T04:06:51.640Z,100085.48
2023-04-03T04:10:19.154Z,100086.30
2023-04-03T04:13:08.728Z,100092.14
2023-04-03T04:15:58.634Z,100091.63
2023-04-03T04:19:26.034Z,100091.09
2023-04-03T04:22:34.505Z,100092.23
2023-04-03T04:25:42.734Z,100100.39
2023-04-03T04:28:33.377Z,100101.56
2023-04-03T04:31:42.243Z,100104.92
2023-04-03T04:35:09.806Z,100111.16
2023-04-03T04:38:37.349Z,100108.11
2023-04-03T04:42:04.991Z,100112.09
2023-04-03T04:45:32.570Z,100119.41
2023-04-03T04:49:00.306Z,100122.64
2023-04-03T04:51:52.253Z,100126.59
2023-04-03T04:55:17.481Z,100131.45
2023-04-03T04:58:26.169Z,100135.48
2023-04-03T05:01:54.039Z,100133.60
2023-04-03T05:05:21.559Z,100130.69
2023-04-03T05:08:49.383Z,100130.08
2023-04-03T05:12:16.905Z,100132.14
2023-04-03T05:15:25.213Z,100135.89
2023-04-03T05:18:52.903Z,100135.91
2023-04-03T05:22:20.570Z,100146.67
2023-04-03T05:25:30.330Z,100147.21
2023-04-03T05:28:39.053Z,100152.55
2023-04-03T05:32:06.662Z,100151.52
2023-04-03T05:35:15.329Z,100148.38
2023-04-03T05:38:42.936Z,100146.55
2023-04-03T05:41:51.351Z,100149.68
2023-04-03T05:45:18.797Z,100155.62
2023-04-03T05:48:46.594Z,100154.58
2023-04-03T05:52:14.452Z,100155.39
2023-04-03T05:55:41.981Z,100157.75
2023-04-03T05:59:09.613Z,100163.44
2023-04-03T06:02:37.725Z,100166.55
2023-04-03T06:06:05.404Z,100167.90
2023-04-03T06:09:32.968Z,100173.54
2023-04-03T06:13:00.460Z,100170.83
2023-04-03T06:16:12.256Z,100176.57
2023-04-03T06:19:39.942Z,100181.07
2023-04-03T06:23:08.616Z,100182.19
2023-04-03T06:26:23.775Z,100180.25
2023-04-03T06:29:51.375Z,100181.96
2023-04-03T06:32:41.421Z,100181.18
2023-04-03T06:36:09.484Z,100186.64
2023-04-03T06:39:37.619Z,100187.56
2023-04-03T06:43:07.909Z,100187.04
2023-04-03T06:46:35.772Z,100191.40
2023-04-03T06:49:45.636Z,100196.85
2023-04-03T06:52:55.223Z,100203.59
2023-04-03T06:56:22.886Z,100204.05
2023-04-03T06:59:50.417Z,100205.27
2023-04-03T07:03:18.058Z,100210.77
2023-04-03T07:06:45.504Z,100223.17
2023-04-03T07:10:13.149Z,100221.93
2023-04-03T07:13:22.288Z,100221.39
2023-04-03T07:16:49.800Z,100224.82
2023-04-03T07:20:17.501Z,100226.84
2023-04-03T07:23:26.234Z,100232.30
2023-04-03T07:26:53.828Z,100239.88
2023-04-03T07:30:03.243Z,100248.50
2023-04-03T07:33:12.804Z,100254.29
2023-04-03T07:36:22.426Z,100266.71
2023-04-03T07:39:50.070Z,100266.70
2023-04-03T07:43:17.673Z,100271.88
2023-04-03T07:46:45.243Z,100281.39
2023-04-03T07:50:12.906Z,100280.57
2023-04-03T07:53:40.571Z,100279.42
2023-04-03T07:56:30.303Z,100277.10
2023-04-03T07:59:57.874Z,100280.39
2023-04-03T08:03:05.626Z,100283.78
2023-04-03T08:06:45.031Z,100289.25
2023-04-03T08:10:00.949Z,100292.98
2023-04-03T08:13:28.627Z,100299.80
2023-04-03T08:16:56.212Z,100299.27
2023-04-03T08:20:05.930Z,100302.86
2023-04-03T08:23:33.515Z,100296.35
2023-04-03T08:27:01.050Z,100293.60
2023-04-03T08:30:09.845Z,100285.45
2023-04-03T08:33:37.363Z,100282.82
2023-04-03T08:36:46.268Z,100281.54
2023-04-03T08:39:34.782Z,100285.39
2023-04-03T08:42:44.604Z,100287.63
2023-04-03T08:46:12.330Z,100286.27
2023-04-03T08:49:39.946Z,100282.75
2023-04-03T08:53:08.433Z,100285.38
2023-04-03T08:56:16.792Z,100282.85
2023-04-03T08:59:40.647Z,100276.59
2023-04-03T09:03:10.796Z,100267.66
2023-04-03T09:06:35.805Z,100263.30
2023-04-03T09:10:03.371Z,100269.70
2023-04-03T09:13:30.908Z,100276.34
2023-04-03T09:16:59.265Z,100278.31
2023-04-03T09:20:26.701Z,100282.27
2023-04-03T09:23:54.429Z,100283.54
2023-04-03T09:27:22.090Z,100277.42
2023-04-03T09:30:37.942Z,100284.91
2023-04-03T09:34:05.453Z,100289.56
2023-04-03T09:37:33.057Z,100292.38
2023-04-03T09:41:00.672Z,100289.06
2023-04-03T09:44:08.339Z,100290.34
2023-04-03T09:47:36.228Z,100285.23
2023-04-03T09:50:44.550Z,100283.58
2023-04-03T09:54:12.350Z,100281.58
2023-04-03T09:57:39.974Z,100283.46
2023-04-03T10:01:07.646Z,100291.20
2023-04-03T10:04:35.241Z,100299.30
2023-04-03T10:07:48.673Z,100293.88
2023-04-03T10:11:11.488Z,100292.67
2023-04-03T10:14:39.189Z,100293.52
2023-04-03T10:18:17.979Z,100290.84
2023-04-03T10:21:34.378Z,100285.05
2023-04-03T10:25:02.258Z,100283.50
2023-04-03T10:28:29.830Z,100280.53
2023-04-03T10:31:57.972Z,100284.05
2023-04-03T10:35:25.467Z,100279.98
2023-04-03T10:38:37.490Z,100273.79
2023-04-03T10:42:16.574Z,100261.90
2023-04-03T10:45:33.943Z,100258.41
2023-04-03T10:48:45.486Z,100249.89
2023-04-03T10:52:13.214Z,100252.83
2023-04-03T10:55:24.887Z,100253.06
2023-04-03T10:58:48.372Z,100252.42
2023-04-03T11:01:56.460Z,100252.15
2023-04-03T11:05:04.997Z,100247.01
2023-04-03T11:08:13.687Z,100243.86
2023-04-03T11:11:09.353Z,100241.70
